Time;durP1;ratioP1;P1;durP2;ratioP2;P2;SDS_P1;SDS_P2;PMS_P1;PMS_P2;Temp;Humidity;BMP_temperature;BMP_pressure;BME280_temperature;BME280_humidity;BME280_pressure;Samples;Min_cycle;Max_cycle;Signal;HPM_P1;HPM_P2
2021/12/19 00:00:45;;;;;;;31.73;19.43;;;;;;;0.10;100.00;-23817.81;5075365;28;20190;-74
2021/12/19 00:11:06;;;;;;;30.50;17.57;;;;;;;0.06;100.00;-23816.81;5074009;28;20647;-75
2021/12/19 00:13:32;;;;;;;28.23;17.93;;;;;;;0.00;100.00;-23815.25;5073513;28;20224;-71
2021/12/19 00:15:57;;;;;;;28.73;17.67;;;;;;;0.13;100.00;-23818.69;5074734;28;20179;-71
2021/12/19 00:18:24;;;;;;;31.13;17.67;;;;;;;-0.32;100.00;-23806.09;5076418;28;20178;-71
2021/12/19 00:20:49;;;;;;;26.03;16.53;;;;;;;0.15;100.00;-23819.41;5080668;28;20625;-71
2021/12/19 00:23:16;;;;;;;30.07;18.10;;;;;;;0.12;100.00;-23818.41;5079338;28;20216;-70
2021/12/19 00:25:41;;;;;;;25.10;15.77;;;;;;;0.00;100.00;-23815.25;5080618;28;20213;-70
2021/12/19 00:28:07;;;;;;;27.03;15.60;;;;;;;-0.09;100.00;-23812.66;5086638;28;20166;-73
2021/12/19 00:30:33;;;;;;;24.43;14.37;;;;;;;0.12;100.00;-23818.41;5085023;28;20194;-70
2021/12/19 00:32:58;;;;;;;22.73;14.10;;;;;;;0.18;100.00;-23820.13;5081167;28;20166;-72
2021/12/19 00:35:24;;;;;;;24.57;14.17;;;;;;;-0.13;100.00;-23811.38;5074982;28;20174;-71
2021/12/19 00:37:50;;;;;;;25.70;14.40;;;;;;;-0.17;100.00;-23810.25;5080222;28;20181;-69
2021/12/19 00:40:16;;;;;;;21.90;14.00;;;;;;;0.09;100.00;-23817.53;5074313;28;20175;-72
2021/12/19 00:42:42;;;;;;;22.37;13.07;;;;;;;-0.13;100.00;-23811.38;5074550;28;20177;-73
2021/12/19 00:45:20;;;;;;;20.83;13.03;;;;;;;-0.07;100.00;-23813.25;5073637;28;20237;-70
2021/12/19 00:47:46;;;;;;;23.37;12.83;;;;;;;-0.30;100.00;-23806.66;5073177;28;20173;-75
2021/12/19 00:50:13;;;;;;;16.07;10.10;;;;;;;-0.17;100.00;-23810.38;5074269;28;20197;-74
2021/12/19 00:52:39;;;;;;;17.30;10.43;;;;;;;-0.07;100.00;-23813.09;5072815;28;20177;-74
2021/12/19 00:55:05;;;;;;;14.57;8.97;;;;;;;0.03;100.00;-23815.97;5073343;28;20205;-74
2021/12/19 00:57:31;;;;;;;12.93;8.43;;;;;;;0.29;100.00;-23823.28;5071972;28;20185;-72
2021/12/19 00:59:56;;;;;;;12.53;7.50;;;;;;;0.06;100.00;-23816.81;5080776;28;20252;-71
2021/12/19 01:02:22;;;;;;;10.33;6.73;;;;;;;0.05;100.00;-23816.53;5072933;28;20185;-74
2021/12/19 01:04:47;;;;;;;12.13;6.87;;;;;;;0.48;100.00;-23828.72;5072313;28;20637;-75
2021/12/19 01:07:13;;;;;;;11.23;6.47;;;;;;;0.22;100.00;-23821.41;5074349;28;20219;-77
2021/12/19 01:09:38;;;;;;;11.53;7.20;;;;;;;0.54;100.00;-23830.28;5075243;28;20181;-75
2021/12/19 01:12:05;;;;;;;9.90;6.40;;;;;;;0.17;100.00;-23819.84;5072624;28;20649;-73
2021/12/19 01:14:30;;;;;;;12.20;7.20;;;;;;;0.53;100.00;-23830.13;5073067;28;20629;-70
2021/12/19 01:16:56;;;;;;;10.10;6.63;;;;;;;0.40;100.00;-23826.56;5072905;28;20182;-74
2021/12/19 01:19:22;;;;;;;11.07;7.00;;;;;;;-0.07;100.00;-23813.09;5072629;28;20649;-70
2021/12/19 01:21:49;;;;;;;10.50;6.80;;;;;;;0.06;100.00;-23816.69;5072785;28;20174;-71
2021/12/19 01:24:15;;;;;;;10.83;6.63;;;;;;;-0.06;100.00;-23813.38;5072720;28;20174;-72
2021/12/19 01:26:42;;;;;;;12.07;7.23;;;;;;;-0.02;100.00;-23814.69;5071019;28;20212;-71
2021/12/19 01:29:12;;;;;;;10.60;7.13;;;;;;;0.08;100.00;-23817.41;5072488;28;20648;-74
2021/12/19 01:31:37;;;;;;;11.30;6.83;;;;;;;0.01;100.00;-23815.41;5072552;28;20166;-75
2021/12/19 01:34:03;;;;;;;11.13;7.23;;;;;;;-0.60;100.00;-23798.06;5072184;28;20178;-74
2021/12/19 01:36:28;;;;;;;11.27;6.57;;;;;;;0.05;100.00;-23816.53;5072366;28;20182;-74
2021/12/19 01:38:54;;;;;;;10.13;6.50;;;;;;;-0.07;100.00;-23813.25;5072530;28;20644;-72
2021/12/19 01:41:19;;;;;;;11.53;7.17;;;;;;;0.12;100.00;-23818.41;5072483;28;20235;-76
2021/12/19 01:43:45;;;;;;;11.67;7.50;;;;;;;-0.04;100.00;-23813.97;5072193;28;20317;-73
2021/12/19 01:46:12;;;;;;;11.13;6.90;;;;;;;0.14;100.00;-23818.97;5084765;28;20204;-70
2021/12/19 01:48:38;;;;;;;9.47;6.27;;;;;;;0.47;100.00;-23828.41;5090848;28;20204;-73
2021/12/19 01:51:04;;;;;;;11.47;6.73;;;;;;;0.61;100.00;-23832.44;5092075;28;20231;-72
2021/12/19 01:53:30;;;;;;;12.60;6.93;;;;;;;0.49;100.00;-23829.00;5092239;28;20177;-75
2021/12/19 01:55:55;;;;;;;11.17;7.20;;;;;;;0.17;100.00;-23819.97;5092623;28;20188;-73
2021/12/19 01:58:21;;;;;;;13.90;7.00;;;;;;;0.44;100.00;-23827.56;5091306;28;20736;-74
2021/12/19 02:00:57;;;;;;;11.00;6.37;;;;;;;0.19;100.00;-23820.41;5091990;28;20252;-75
2021/12/19 02:03:24;;;;;;;13.87;7.07;;;;;;;0.12;100.00;-23818.53;5092012;28;20173;-72
2021/12/19 02:05:50;;;;;;;10.53;7.07;;;;;;;0.19;100.00;-23820.41;5092057;28;20205;-71
2021/12/19 02:08:16;;;;;;;11.60;6.93;;;;;;;0.69;100.00;-23834.72;5092043;28;20180;-72
2021/12/19 02:10:43;;;;;;;12.47;7.10;;;;;;;0.77;100.00;-23837.00;5092166;28;20170;-73
2021/12/19 02:13:10;;;;;;;12.20;7.60;;;;;;;0.85;100.00;-23839.28;5092341;28;20208;-72
2021/12/19 02:15:37;;;;;;;12.47;7.53;;;;;;;0.50;100.00;-23829.13;5092043;28;20250;-74
2021/12/19 02:18:07;;;;;;;11.00;7.53;;;;;;;0.80;100.00;-23837.72;5090709;28;20191;-73
2021/12/19 02:20:39;;;;;;;11.17;7.70;;;;;;;0.87;100.00;-23839.88;5092371;28;20174;-72
2021/12/19 02:23:05;;;;;;;13.07;7.90;;;;;;;0.58;100.00;-23831.44;5090790;28;20182;-70
2021/12/19 02:25:32;;;;;;;11.83;7.40;;;;;;;0.65;100.00;-23833.44;5091893;28;20198;-72
2021/12/19 02:27:58;;;;;;;10.63;7.37;;;;;;;0.61;100.00;-23832.44;5091883;28;20701;-71
2021/12/19 02:30:23;;;;;;;12.47;7.60;;;;;;;0.58;100.00;-23831.44;5092808;28;20197;-73
2021/12/19 02:32:49;;;;;;;14.97;8.17;;;;;;;0.51;100.00;-23829.44;5096246;28;20181;-70
2021/12/19 02:35:20;;;;;;;11.33;7.50;;;;;;;0.77;100.00;-23837.00;5094640;28;20537;-73
2021/12/19 02:40:31;;;;;;;16.23;8.10;;;;;;;0.50;100.00;-23829.28;5095944;28;20538;-73
2021/12/19 02:48:28;;;;;;;14.87;8.70;;;;;;;0.65;100.00;-23833.56;5095808;28;20211;-74
2021/12/19 02:50:55;;;;;;;12.57;8.57;;;;;;;0.45;100.00;-23827.84;5095279;28;20174;-70
2021/12/19 02:53:33;;;;;;;15.27;8.47;;;;;;;0.65;100.00;-23833.44;5095484;28;20253;-73
2021/12/19 02:56:01;;;;;;;15.30;9.23;;;;;;;0.29;100.00;-23823.28;5094123;28;20214;-73
2021/12/19 02:58:30;;;;;;;17.60;8.77;;;;;;;0.74;100.00;-23836.16;5095503;28;20262;-70
2021/12/19 03:00:59;;;;;;;13.23;8.20;;;;;;;0.37;100.00;-23825.69;5095754;28;20626;-70
2021/12/19 03:03:24;;;;;;;14.27;9.10;;;;;;;0.57;100.00;-23831.28;5095036;28;20261;-74
2021/12/19 03:05:49;;;;;;;13.97;8.33;;;;;;;0.68;100.00;-23834.28;5095260;28;20218;-73
2021/12/19 03:08:15;;;;;;;15.10;8.20;;;;;;;0.68;100.00;-23834.28;5095240;28;20189;-74
2021/12/19 03:18:47;;;;;;;10.67;7.40;;;;;;;0.59;100.00;-23831.72;5072293;28;20184;-73
2021/12/19 03:21:16;;;;;;;10.50;7.23;;;;;;;0.26;100.00;-23822.56;5071793;28;20659;-71
2021/12/19 03:23:41;;;;;;;11.17;6.77;;;;;;;0.42;100.00;-23827.00;5077709;28;20272;-71
2021/12/19 03:26:07;;;;;;;10.30;6.93;;;;;;;0.49;100.00;-23829.00;5079423;28;20304;-74
2021/12/19 03:28:33;;;;;;;12.77;7.53;;;;;;;0.55;100.00;-23830.56;5072934;28;20190;-71
2021/12/19 03:30:59;;;;;;;10.37;6.90;;;;;;;0.75;100.00;-23836.28;5074457;28;20287;-72
2021/12/19 03:33:25;;;;;;;11.17;7.30;;;;;;;0.75;100.00;-23836.44;5074589;28;20634;-75
2021/12/19 03:35:50;;;;;;;12.77;7.30;;;;;;;0.53;100.00;-23830.13;5073461;28;20178;-71
2021/12/19 03:38:16;;;;;;;10.27;6.80;;;;;;;0.72;100.00;-23835.56;5075536;28;20177;-72
2021/12/19 03:40:51;;;;;;;13.73;7.37;;;;;;;0.67;100.00;-23834.00;5074172;28;20178;-73
2021/12/19 03:43:19;;;;;;;10.23;6.80;;;;;;;0.59;100.00;-23831.84;5074898;28;20219;-72
2021/12/19 03:45:47;;;;;;;11.33;6.63;;;;;;;0.56;100.00;-23830.84;5077817;28;20205;-73
2021/12/19 03:48:15;;;;;;;12.37;7.07;;;;;;;0.57;100.00;-23831.28;5075324;28;20176;-73
2021/12/19 03:50:44;;;;;;;10.67;6.87;;;;;;;0.66;100.00;-23833.84;5074688;28;20212;-72
2021/12/19 03:53:11;;;;;;;10.83;6.70;;;;;;;0.48;100.00;-23828.72;5075005;28;20208;-72
2021/12/19 03:55:37;;;;;;;10.50;6.63;;;;;;;0.47;100.00;-23828.41;5074597;28;20203;-71
2021/12/19 03:58:03;;;;;;;10.80;7.00;;;;;;;0.47;100.00;-23828.41;5074272;28;20172;-74
2021/12/19 04:00:31;;;;;;;11.07;7.00;;;;;;;0.72;100.00;-23835.44;5074217;28;20630;-73
2021/12/19 04:03:00;;;;;;;10.80;7.03;;;;;;;0.79;100.00;-23837.44;5073985;28;20178;-76
2021/12/19 04:05:26;;;;;;;9.33;6.73;;;;;;;0.20;100.00;-23820.69;5073899;28;20194;-72
2021/12/19 04:07:52;;;;;;;9.43;6.87;;;;;;;0.36;100.00;-23825.28;5074028;28;20177;-72
2021/12/19 04:10:18;;;;;;;11.17;6.80;;;;;;;0.35;100.00;-23825.00;5073897;28;20546;-75
2021/12/19 04:12:44;;;;;;;10.57;6.20;;;;;;;0.71;100.00;-23835.28;5073939;28;20166;-71
2021/12/19 04:15:11;;;;;;;10.20;6.87;;;;;;;0.56;100.00;-23831.00;5072446;28;20188;-74
2021/12/19 04:17:37;;;;;;;9.37;6.37;;;;;;;0.41;100.00;-23826.72;5081329;28;20552;-72
2021/12/19 04:20:03;;;;;;;10.50;6.80;;;;;;;0.70;100.00;-23834.84;5073732;28;20187;-75
2021/12/19 04:22:29;;;;;;;9.07;6.00;;;;;;;0.41;100.00;-23826.84;5073250;28;20262;-74
2021/12/19 04:24:54;;;;;;;8.90;6.23;;;;;;;0.81;100.00;-23838.16;5073583;28;20253;-72
2021/12/19 04:27:20;;;;;;;9.63;6.30;;;;;;;0.94;100.00;-23841.72;5073331;28;20202;-74
2021/12/19 04:29:46;;;;;;;9.50;6.37;;;;;;;0.75;100.00;-23836.28;5073818;28;20170;-73
2021/12/19 04:32:12;;;;;;;10.43;6.33;;;;;;;0.51;100.00;-23829.56;5071986;28;20202;-72
2021/12/19 04:34:38;;;;;;;9.87;6.00;;;;;;;0.44;100.00;-23827.72;5073001;28;20560;-70
2021/12/19 04:37:22;;;;;;;11.77;6.67;;;;;;;1.04;100.00;-23844.44;5073396;28;20170;-74
2021/12/19 04:40:00;;;;;;;9.90;6.30;;;;;;;0.63;100.00;-23833.00;5073551;28;20291;-77
2021/12/19 04:43:56;;;;;;;9.37;6.60;;;;;;;0.86;100.00;-23839.59;5070487;28;20575;-74
2021/12/19 05:04:09;;;;;;;12.13;7.60;;;;;;;0.78;100.00;-23837.28;5048080;28;20178;-71
2021/12/19 05:14:44;;;;;;;11.13;7.43;;;;;;;0.69;100.00;-23834.72;5047433;28;20196;-73
2021/12/19 05:17:16;;;;;;;11.37;8.17;;;;;;;0.41;100.00;-23826.72;5069751;28;20205;-75
2021/12/19 05:19:46;;;;;;;10.63;7.47;;;;;;;0.72;100.00;-23835.56;5066120;28;20650;-75
2021/12/19 05:22:12;;;;;;;13.00;8.10;;;;;;;0.55;100.00;-23830.72;5064310;28;20181;-71
2021/12/19 05:27:08;;;;;;;11.93;7.70;;;;;;;-0.24;100.00;-23808.38;5078771;28;20336;-72
2021/12/19 05:29:36;;;;;;;13.83;7.90;;;;;;;0.18;100.00;-23820.13;5068208;28;20235;-71
2021/12/19 05:32:03;;;;;;;11.50;7.03;;;;;;;0.49;100.00;-23828.84;5096430;28;20182;-72
2021/12/19 05:34:30;;;;;;;12.33;7.10;;;;;;;0.68;100.00;-23834.44;5072079;28;20186;-74
2021/12/19 05:47:36;;;;;;;11.97;7.07;;;;;;;0.17;100.00;-23819.84;5072128;28;20228;-72
2021/12/19 05:50:04;;;;;;;9.57;6.33;;;;;;;0.53;100.00;-23830.13;5070506;28;20229;-75
2021/12/19 05:52:30;;;;;;;9.60;6.73;;;;;;;0.68;100.00;-23834.28;5071032;28;20644;-75
2021/12/19 05:54:55;;;;;;;10.13;6.00;;;;;;;0.69;100.00;-23834.72;5071116;28;20179;-72
2021/12/19 05:57:21;;;;;;;9.67;6.70;;;;;;;0.72;100.00;-23835.44;5070931;28;20170;-72
2021/12/19 05:59:47;;;;;;;9.60;6.67;;;;;;;0.60;100.00;-23832.13;5071426;28;20234;-70
2021/12/19 06:02:13;;;;;;;9.40;6.57;;;;;;;0.69;100.00;-23834.56;5071067;28;20660;-73
2021/12/19 06:04:38;;;;;;;8.80;6.10;;;;;;;0.71;100.00;-23835.28;5067855;28;20193;-75
2021/12/19 06:07:05;;;;;;;9.97;6.60;;;;;;;0.48;100.00;-23828.72;5069442;28;20208;-70
2021/12/19 06:09:30;;;;;;;9.13;6.33;;;;;;;0.68;100.00;-23834.44;5068560;28;20194;-73
2021/12/19 06:11:56;;;;;;;8.00;5.70;;;;;;;0.42;100.00;-23827.00;5070818;28;20205;-72
2021/12/19 06:14:22;;;;;;;10.17;6.10;;;;;;;0.99;100.00;-23843.00;5079148;28;20680;-71
2021/12/19 06:16:48;;;;;;;8.60;5.77;;;;;;;0.57;100.00;-23831.13;5070631;28;20176;-73
2021/12/19 06:19:13;;;;;;;8.93;6.27;;;;;;;1.11;100.00;-23846.44;5079945;28;20182;-71
2021/12/19 06:21:39;;;;;;;9.33;5.53;;;;;;;0.91;100.00;-23840.88;5076215;28;20170;-72
2021/12/19 06:24:05;;;;;;;8.17;5.90;;;;;;;1.15;100.00;-23847.75;5084304;28;20176;-78
2021/12/19 06:26:35;;;;;;;8.13;5.40;;;;;;;1.18;100.00;-23848.59;5095827;28;20217;-80
2021/12/19 06:29:03;;;;;;;9.50;6.43;;;;;;;0.57;100.00;-23831.13;5093030;28;20192;-78
2021/12/19 06:31:29;;;;;;;9.97;6.00;;;;;;;1.24;100.00;-23850.16;5096306;28;20189;-79
2021/12/19 06:33:54;;;;;;;7.97;5.63;;;;;;;1.02;100.00;-23843.88;5088197;28;20186;-75
2021/12/19 06:36:20;;;;;;;9.10;6.03;;;;;;;1.13;100.00;-23847.03;5086211;28;20203;-75
2021/12/19 06:38:45;;;;;;;9.50;5.93;;;;;;;1.27;100.00;-23851.03;5078500;28;20191;-77
2021/12/19 06:41:11;;;;;;;8.50;5.90;;;;;;;1.33;100.00;-23852.88;5075367;28;20167;-79
2021/12/19 06:43:37;;;;;;;8.37;5.43;;;;;;;1.43;100.00;-23855.47;5074135;28;20242;-78
2021/12/19 06:46:02;;;;;;;9.93;6.13;;;;;;;0.91;100.00;-23840.88;5074890;28;20206;-80
2021/12/19 06:48:28;;;;;;;11.63;5.80;;;;;;;1.39;100.00;-23854.31;5074391;28;20277;-79
2021/12/19 06:50:54;;;;;;;8.60;5.70;;;;;;;1.39;100.00;-23854.44;5070841;28;20608;-79
2021/12/19 06:53:19;;;;;;;7.90;5.80;;;;;;;1.48;100.00;-23857.03;5070334;28;20180;-76
2021/12/19 06:55:45;;;;;;;8.03;5.60;;;;;;;1.54;100.00;-23858.59;5070501;28;20280;-75
2021/12/19 06:58:10;;;;;;;8.47;5.70;;;;;;;1.70;100.00;-23863.31;5070870;28;20260;-79
2021/12/19 07:00:36;;;;;;;9.70;5.50;;;;;;;1.53;100.00;-23858.44;5070403;28;20191;-78
2021/12/19 07:03:02;;;;;;;10.93;6.53;;;;;;;1.66;100.00;-23862.19;5070851;28;20193;-78
2021/12/19 07:05:27;;;;;;;8.47;5.97;;;;;;;1.41;100.00;-23854.88;5070135;28;20178;-77
2021/12/19 07:07:53;;;;;;;9.83;6.20;;;;;;;1.51;100.00;-23857.88;5071837;28;20185;-78
2021/12/19 07:10:19;;;;;;;9.00;6.20;;;;;;;1.37;100.00;-23853.88;5071965;28;20186;-77
2021/12/19 07:12:44;;;;;;;8.50;5.60;;;;;;;1.77;100.00;-23865.16;5071988;28;20239;-78
2021/12/19 07:15:10;;;;;;;7.00;5.33;;;;;;;0.90;100.00;-23840.59;5076601;28;20200;-80
2021/12/19 07:17:36;;;;;;;9.73;5.93;;;;;;;2.02;100.00;-23872.16;5083985;28;20185;-77
2021/12/19 07:20:04;;;;;;;8.77;5.60;;;;;;;1.66;100.00;-23862.19;5083408;28;20551;-78
2021/12/19 07:22:30;;;;;;;9.73;6.10;;;;;;;2.17;100.00;-23876.59;5072981;28;20261;-79
2021/12/19 07:24:55;;;;;;;10.50;6.20;;;;;;;2.09;100.00;-23874.31;5073594;28;20240;-80
2021/12/19 07:27:21;;;;;;;10.17;6.53;;;;;;;1.77;100.00;-23865.16;5074543;28;20210;-80
2021/12/19 07:29:47;;;;;;;9.07;5.90;;;;;;;2.36;100.00;-23881.88;5074795;28;20640;-79
2021/12/19 07:32:13;;;;;;;11.07;6.43;;;;;;;2.33;100.00;-23880.88;5071755;28;20222;-80
2021/12/19 07:34:39;;;;;;;9.23;6.43;;;;;;;2.42;100.00;-23883.59;5071435;28;20185;-77
2021/12/19 07:37:06;;;;;;;9.23;6.27;;;;;;;2.29;100.00;-23879.75;5071172;28;20627;-77
2021/12/19 07:42:11;;;;;;;9.50;5.93;;;;;;;2.58;100.00;-23888.03;5084760;28;20526;-78
2021/12/19 07:44:38;;;;;;;8.90;5.53;;;;;;;2.65;100.00;-23890.00;5072464;28;20229;-77
2021/12/19 07:47:09;;;;;;;8.83;5.97;;;;;;;2.70;100.00;-23891.31;5069926;28;20677;-75
2021/12/19 07:49:35;;;;;;;9.93;6.27;;;;;;;2.37;100.00;-23882.16;5073289;28;20193;-78
2021/12/19 07:52:01;;;;;;;9.77;5.80;;;;;;;2.85;100.00;-23895.59;5082059;28;20660;-76
2021/12/19 07:54:26;;;;;;;8.73;5.73;;;;;;;2.61;100.00;-23889.03;5082173;28;20274;-76
2021/12/19 07:56:52;;;;;;;12.43;6.47;;;;;;;2.91;100.00;-23897.28;5074448;28;20178;-78
2021/12/19 07:59:18;;;;;;;7.60;5.57;;;;;;;3.09;100.00;-23902.44;5073151;28;20327;-81
2021/12/19 08:01:43;;;;;;;8.30;6.07;;;;;;;2.99;100.00;-23899.72;5073582;28;20235;-82
2021/12/19 08:04:09;;;;;;;8.63;5.60;;;;;;;3.06;100.00;-23901.72;5073250;28;20174;-83
2021/12/19 08:06:34;;;;;;;8.57;5.87;;;;;;;3.06;100.00;-23901.56;5074240;28;20206;-81
2021/12/19 08:09:07;;;;;;;7.30;5.40;;;;;;;3.09;100.00;-23902.44;5072484;28;20648;-80
2021/12/19 08:11:42;;;;;;;8.40;5.63;;;;;;;3.23;100.00;-23906.28;5072461;28;20181;-81
2021/12/19 08:14:14;;;;;;;9.57;5.37;;;;;;;3.05;100.00;-23901.28;5072560;28;20169;-79
2021/12/19 08:16:41;;;;;;;7.40;5.40;;;;;;;3.20;100.00;-23905.56;5072373;28;20189;-76
2021/12/19 08:19:07;;;;;;;8.90;5.70;;;;;;;3.45;100.00;-23912.56;5073596;28;20180;-77
2021/12/19 08:21:33;;;;;;;8.97;5.37;;;;;;;3.45;100.00;-23912.69;5073359;28;20170;-78
2021/12/19 08:24:02;;;;;;;9.07;5.70;;;;;;;3.53;100.00;-23914.97;5074280;28;20178;-78
2021/12/19 08:26:29;;;;;;;8.60;5.73;;;;;;;3.56;100.00;-23915.81;5080242;28;20220;-78
2021/12/19 08:28:54;;;;;;;6.33;5.30;;;;;;;3.36;100.00;-23910.13;5076329;28;20266;-78
2021/12/19 08:31:20;;;;;;;11.23;5.50;;;;;;;3.73;100.00;-23920.53;5080620;28;20259;-77
2021/12/19 08:33:46;;;;;;;10.03;5.73;;;;;;;3.61;100.00;-23916.97;5081259;28;20267;-78
2021/12/19 08:36:12;;;;;;;11.17;6.00;;;;;;;3.63;100.00;-23917.53;5084486;28;20204;-77
2021/12/19 08:38:38;;;;;;;7.90;5.13;;;;;;;3.61;100.00;-23916.97;5096041;28;20185;-78
2021/12/19 08:41:03;;;;;;;8.63;5.23;;;;;;;3.64;100.00;-23917.81;5079340;28;20240;-79
2021/12/19 08:43:29;;;;;;;8.37;5.70;;;;;;;3.44;100.00;-23912.41;5076347;28;20306;-79
2021/12/19 08:45:55;;;;;;;9.87;5.40;;;;;;;3.78;100.00;-23921.97;5076021;28;20241;-79
2021/12/19 08:48:21;;;;;;;10.30;5.80;;;;;;;3.89;100.00;-23924.94;5073546;28;20220;-79
2021/12/19 08:50:47;;;;;;;10.40;5.70;;;;;;;3.58;100.00;-23916.13;5072697;28;20178;-77
2021/12/19 08:53:13;;;;;;;8.53;5.93;;;;;;;4.00;100.00;-23928.09;5073131;28;20232;-78
2021/12/19 08:55:38;;;;;;;11.77;5.73;;;;;;;3.84;100.00;-23923.53;5071903;28;20269;-81
2021/12/19 08:58:04;;;;;;;8.57;5.70;;;;;;;3.88;100.00;-23924.81;5070409;28;20301;-80
2021/12/19 09:00:31;;;;;;;7.77;5.23;;;;;;;3.87;100.00;-23924.38;5080013;28;20281;-79
2021/12/19 09:02:57;;;;;;;8.70;5.97;;;;;;;3.86;100.00;-23924.09;5070914;28;20182;-75
2021/12/19 09:05:28;;;;;;;8.53;5.57;;;;;;;3.55;100.00;-23915.41;5078547;28;20255;-76
2021/12/19 09:07:54;;;;;;;9.30;5.97;;;;;;;3.82;100.00;-23923.09;5068679;28;20196;-76
2021/12/19 09:10:20;;;;;;;12.30;5.83;;;;;;;4.11;100.00;-23931.06;5072250;28;20542;-77
2021/12/19 09:12:53;;;;;;;10.97;5.77;;;;;;;3.83;100.00;-23923.25;5071906;28;20224;-81
2021/12/19 09:15:20;;;;;;;9.97;6.07;;;;;;;3.99;100.00;-23927.81;5072567;28;20202;-79
2021/12/19 09:17:45;;;;;;;9.70;5.50;;;;;;;4.28;100.00;-23935.91;5078214;28;20180;-79
2021/12/19 09:20:12;;;;;;;7.57;5.20;;;;;;;4.34;100.00;-23937.78;5079513;28;20177;-78
2021/12/19 09:22:38;;;;;;;6.97;4.93;;;;;;;4.51;100.00;-23942.31;5081168;28;20641;-79
2021/12/19 09:25:04;;;;;;;8.60;5.30;;;;;;;4.11;100.00;-23931.22;5070885;28;20645;-79
2021/12/19 09:27:29;;;;;;;9.47;5.60;;;;;;;4.34;100.00;-23937.78;5071537;28;20250;-79
2021/12/19 09:29:55;;;;;;;8.87;5.67;;;;;;;4.37;100.00;-23938.63;5071908;28;20170;-78
2021/12/19 09:32:20;;;;;;;8.13;5.93;;;;;;;4.75;100.00;-23949.31;5071849;28;20174;-80
2021/12/19 09:34:46;;;;;;;9.60;5.87;;;;;;;4.59;100.00;-23944.75;5071264;28;20324;-79
2021/12/19 09:37:12;;;;;;;11.07;5.73;;;;;;;4.69;100.00;-23947.44;5072419;28;20242;-80
2021/12/19 09:39:39;;;;;;;10.73;6.60;;;;;;;4.73;100.00;-23948.59;5066945;28;20293;-78
2021/12/19 09:42:13;;;;;;;8.30;6.17;;;;;;;4.95;100.00;-23954.72;5070410;28;20227;-75
2021/12/19 09:44:40;;;;;;;12.43;6.10;;;;;;;4.58;100.00;-23944.31;5078506;28;20353;-79
2021/12/19 09:47:08;;;;;;;9.03;6.10;;;;;;;4.97;100.00;-23955.41;5069229;28;20216;-77
2021/12/19 09:49:35;;;;;;;8.00;6.13;;;;;;;4.88;100.00;-23952.84;5068362;28;20561;-77
2021/12/19 09:52:04;;;;;;;10.43;6.50;;;;;;;4.94;100.00;-23954.41;5071038;28;20675;-77
2021/12/19 09:54:31;;;;;;;13.33;7.00;;;;;;;4.78;100.00;-23950.00;5082307;28;20181;-77
2021/12/19 09:56:56;;;;;;;10.37;6.90;;;;;;;5.01;100.00;-23956.41;5072624;28;20567;-76
2021/12/19 09:59:22;;;;;;;8.27;5.97;;;;;;;4.98;100.00;-23955.56;5078114;28;20188;-77
2021/12/19 10:01:50;;;;;;;12.67;6.40;;;;;;;5.02;100.00;-23956.69;5073963;28;20656;-76
2021/12/19 10:04:45;;;;;;;8.13;6.43;;;;;;;5.35;100.00;-23966.09;5075561;28;20174;-78
2021/12/19 10:07:14;;;;;;;8.67;6.13;;;;;;;5.36;100.00;-23966.38;5073186;28;20214;-77
2021/12/19 10:10:01;;;;;;;9.40;6.50;;;;;;;5.39;100.00;-23967.06;5070342;28;20247;-79
2021/12/19 10:15:17;;;;;;;10.53;6.50;;;;;;;5.09;100.00;-23958.81;5072208;28;20503;-82
2021/12/19 10:17:42;;;;;;;12.53;6.17;;;;;;;5.19;100.00;-23961.66;5071333;28;20178;-80
2021/12/19 10:20:14;;;;;;;10.37;6.63;;;;;;;5.58;100.00;-23972.47;5077244;28;20187;-77
2021/12/19 10:22:48;;;;;;;11.23;6.67;;;;;;;5.77;100.00;-23977.88;5068121;28;20269;-81
2021/12/19 10:25:19;;;;;;;9.80;6.13;;;;;;;5.79;100.00;-23978.44;5068947;28;20189;-77
2021/12/19 10:27:52;;;;;;;10.00;6.67;;;;;;;5.75;100.00;-23977.31;5068630;28;20185;-80
2021/12/19 10:30:20;;;;;;;9.47;6.03;;;;;;;5.26;100.00;-23963.53;5079786;28;20188;-78
2021/12/19 10:33:02;;;;;;;9.10;6.30;;;;;;;5.54;100.00;-23971.34;5077735;28;20196;-75
2021/12/19 10:35:27;;;;;;;10.40;6.43;;;;;;;5.73;100.00;-23976.75;5058943;28;20300;-79
2021/12/19 10:37:53;;;;;;;9.53;6.50;;;;;;;5.60;100.00;-23973.19;5076578;28;20176;-76
2021/12/19 10:40:19;;;;;;;16.53;7.60;;;;;;;5.87;100.00;-23980.59;5067927;28;20192;-78
2021/12/19 10:42:45;;;;;;;12.70;6.90;;;;;;;5.85;100.00;-23980.00;5076775;28;20184;-77
2021/12/19 10:45:30;;;;;;;10.70;7.40;;;;;;;5.50;100.00;-23970.34;5079395;28;20225;-77
2021/12/19 10:48:08;;;;;;;10.67;7.37;;;;;;;5.84;100.00;-23979.88;5071238;28;20178;-77
2021/12/19 10:51:04;;;;;;;9.87;6.43;;;;;;;5.83;100.00;-23979.59;5071236;28;20612;-77
2021/12/19 10:53:54;;;;;;;9.60;7.03;;;;;;;5.82;100.00;-23979.31;5058815;28;20555;-79
2021/12/19 10:56:29;;;;;;;10.47;7.10;;;;;;;5.99;100.00;-23984.13;5075106;28;20208;-79
2021/12/19 10:58:58;;;;;;;11.27;7.77;;;;;;;5.88;100.00;-23981.00;5081822;28;20632;-79
2021/12/19 11:01:38;;;;;;;11.87;7.50;;;;;;;6.29;100.00;-23992.38;5083319;28;20178;-78
2021/12/19 11:04:20;;;;;;;15.43;7.10;;;;;;;5.81;100.00;-23979.00;5075870;28;20589;-77
2021/12/19 11:06:59;;;;;;;12.83;7.90;;;;;;;5.67;100.00;-23975.19;5075246;28;20224;-78
2021/12/19 11:09:30;;;;;;;12.07;7.73;;;;;;;6.02;100.00;-23984.97;5077840;28;20177;-79
2021/12/19 11:12:10;;;;;;;13.07;8.23;;;;;;;6.33;100.00;-23993.50;5078901;28;20239;-77
2021/12/19 11:14:39;;;;;;;14.33;8.47;;;;;;;6.62;100.00;-24001.88;5086998;28;20652;-77
2021/12/19 11:17:18;;;;;;;14.57;8.20;;;;;;;6.38;100.00;-23994.94;5080161;28;20185;-76
2021/12/19 11:19:44;;;;;;;12.97;8.40;;;;;;;6.55;100.00;-23999.75;5080933;28;20181;-77
2021/12/19 11:22:12;;;;;;;11.30;8.00;;;;;;;6.41;100.00;-23995.78;5073478;28;20213;-79
2021/12/19 11:24:38;;;;;;;11.67;7.83;;;;;;;6.27;100.00;-23991.94;5073527;28;20268;-76
2021/12/19 11:27:06;;;;;;;12.90;7.73;;;;;;;6.52;99.75;-23998.91;5075915;28;20297;-77
2021/12/19 11:29:32;;;;;;;11.50;8.30;;;;;;;6.04;98.58;-23985.41;5076672;28;20196;-76
2021/12/19 11:32:06;;;;;;;13.03;8.00;;;;;;;6.49;99.14;-23998.19;5073729;28;20611;-80
2021/12/19 11:34:56;;;;;;;14.27;8.70;;;;;;;6.29;98.75;-23992.38;5071087;28;20186;-79
2021/12/19 11:37:36;;;;;;;13.83;8.57;;;;;;;6.71;98.82;-24004.16;5081860;28;20182;-81
2021/12/19 11:40:07;;;;;;;12.60;7.60;;;;;;;6.93;99.98;-24010.41;5069868;28;20703;-77
2021/12/19 11:42:42;;;;;;;13.97;8.67;;;;;;;7.04;98.08;-24013.66;5077956;28;20189;-78
2021/12/19 11:45:28;;;;;;;14.30;8.73;;;;;;;6.91;98.60;-24009.81;5081066;28;20221;-74
2021/12/19 11:48:13;;;;;;;13.90;8.67;;;;;;;6.95;97.76;-24011.09;5083003;28;20640;-85
2021/12/19 11:51:06;;;;;;;12.63;8.67;;;;;;;6.97;98.43;-24011.66;5076297;28;20177;-81
2021/12/19 11:53:46;;;;;;;13.77;9.10;;;;;;;6.46;98.84;-23997.19;5073136;28;20232;-80
2021/12/19 11:56:17;;;;;;;13.57;8.87;;;;;;;6.79;100.00;-24006.44;5076089;28;20185;-76
2021/12/19 11:58:48;;;;;;;10.97;7.00;;;;;;;6.97;97.21;-24011.66;5072383;28;20196;-78
2021/12/19 12:01:24;;;;;;;12.17;7.93;;;;;;;6.84;95.65;-24008.00;5075975;28;20178;-77
2021/12/19 12:03:59;;;;;;;11.30;7.13;;;;;;;6.70;94.98;-24004.00;5072379;28;20624;-75
2021/12/19 12:06:26;;;;;;;13.23;7.00;;;;;;;6.90;93.76;-24009.53;5090073;28;20227;-76
2021/12/19 12:09:16;;;;;;;9.63;6.67;;;;;;;6.91;92.19;-24009.97;5086648;28;20213;-76
2021/12/19 12:12:00;;;;;;;10.77;7.50;;;;;;;6.96;94.63;-24011.25;5095380;28;20264;-82
2021/12/19 12:14:34;;;;;;;10.53;7.67;;;;;;;6.97;93.28;-24011.66;5060925;28;20174;-78
2021/12/19 12:17:21;;;;;;;13.37;7.60;;;;;;;7.04;90.73;-24013.50;5083571;28;20601;-80
2021/12/19 12:19:50;;;;;;;11.57;6.90;;;;;;;6.92;93.60;-24010.25;5071547;28;20276;-81
2021/12/19 12:25:24;;;;;;;10.93;7.00;;;;;;;6.73;92.48;-24004.72;5036956;28;20192;-82
2021/12/19 12:28:06;;;;;;;12.97;8.00;;;;;;;7.02;94.93;-24012.94;5073956;28;20271;-80
2021/12/19 12:30:54;;;;;;;12.87;8.40;;;;;;;7.05;97.37;-24013.81;5074783;28;20177;-78
2021/12/19 12:33:26;;;;;;;15.07;9.37;;;;;;;7.08;99.82;-24014.78;5073278;28;20556;-78
2021/12/19 12:35:54;;;;;;;12.97;9.17;;;;;;;7.00;99.45;-24012.53;5074154;28;20597;-79
2021/12/19 12:38:20;;;;;;;14.17;8.77;;;;;;;6.39;99.26;-23995.34;5073549;28;20192;-77